Latest Coastal Weather Observations for Middle Percy Island

IDQ60701

Issued at 9:51 am EST Friday 9 December 2016 (issued every 10 minutes, with the page automatically refreshed every 10 minutes)

About coastal observations | Map of coastal stations | Coastal observations for QLD | Marine services | Other Formats
Station Details ID: 200001 Name: MIDDLE PERCY ISLAND Lat: -21.66 Lon: 150.27 Height: 208.7 m
Data from the previous 72 hours. | See also: Recent months at Middle Percy Island
Date/Time
EST
Temp
°C
Wind Pressure Rain since
9am
mm
Weather Cloud Vis
km
Sea
Height
m
Swell
Dir  Spd
kts
Gust
kts
hPa Trend Height
m
Period
s
Dir
09/09:30am 28.3 SSW 5 8 1012.2 - 0.0 - - - - - - -
09/09:00am 27.6 SSW 5 10 1012.4 - 0.0 - - - - - - -
09/08:30am 26.8 SSW 5 8 1012.7 - 0.0 - - - - - - -
09/08:00am 26.9 SSW 7 10 1012.6 - 0.0 - - - - - - -
09/07:30am 26.3 SW 4 10 1012.6 - 0.0 - - - - - - -
09/07:00am 25.4 W 3 5 1012.4 - 0.0 - - - - - - -
09/06:30am 25.3 W 2 5 1012.2 - 0.0 - - - - - - -
09/06:00am 24.7 NNW 3 6 1011.2 - 0.0 - - - - - - -
09/05:30am 23.9 N 7 9 1010.6 - 0.0 - - - - - - -
09/05:00am 23.8 N 6 9 1010.3 - 0.0 - - - - - - -
09/04:30am 23.8 N 6 8 1010.0 - 0.0 - - - - - - -
09/04:00am 23.8 N 7 8 1009.9 - 0.0 - - - - - - -
09/03:30am 23.9 N 7 9 1009.8 - 0.0 - - - - - - -
09/03:00am 23.9 N 9 13 1009.7 - 0.0 - - - - - - -
09/02:30am 24.0 N 7 10 1009.9 - 0.0 - - - - - - -
09/02:00am 24.1 N 8 12 1009.8 - 0.0 - - - - - - -
09/01:30am 24.1 N 9 13 1010.0 - 0.0 - - - - - - -
09/01:00am 24.1 N 10 14 1010.1 - 0.0 - - - - - - -
09/12:30am 24.1 N 10 14 1010.6 - 0.0 - - - - - - -
09/12:00am 24.1 N 10 13 1011.0 - 0.0 - - - - - - -
 
Date/Time
EST
Temp
°C
Wind Pressure Rain since
9am
mm
Weather Cloud Vis
km
Sea
Height
m
Swell
Dir  Spd
kts
Gust
kts
hPa Trend Height
m
Period
s
Dir
08/11:30pm 24.2 N 11 14 1011.5 - 0.0 - - - - - - -
08/11:00pm 24.3 N 10 13 1011.7 - 0.0 - - - - - - -
08/10:30pm 24.3 N 9 12 1011.9 - 0.0 - - - - - - -
08/10:00pm 24.4 N 9 13 1011.8 - 0.0 - - - - - - -
08/09:30pm 24.4 NNE 11 15 1011.6 - 0.0 - - - - - - -
08/09:00pm 24.4 NNE 9 12 1011.2 - 0.0 - - - - - - -
08/08:30pm 24.6 NNE 10 14 1011.0 - 0.0 - - - - - - -
08/08:00pm 24.6 NNE 8 12 1010.8 - 0.0 - - - - - - -
08/07:30pm 24.7 NNE 9 14 1010.6 - 0.0 - - - - - - -
08/07:00pm 24.7 NNE 11 15 1010.4 - 0.0 - - - - - - -
08/06:30pm 24.9 NNE 8 10 1010.3 - 0.0 - - - - - - -
08/06:00pm 25.3 NNE 8 12 1010.1 - 0.0 - - - - - - -
08/05:30pm 25.8 NNE 8 12 1009.9 - 0.0 - - - - - - -
08/05:00pm 25.7 NE 8 10 1009.8 - 0.0 - - - - - - -
08/04:30pm 26.8 N 7 12 1009.7 - 0.0 - - - - - - -
08/04:00pm 27.1 N 7 13 1009.6 - 0.0 - - - - - - -
08/03:30pm 26.1 NE 7 9 1009.8 - 0.0 - - - - - - -
08/03:00pm 26.9 NNW 7 9 1010.1 - 0.0 - - - - - - -
08/02:30pm 27.4 NNW 6 11 1010.0 - 0.0 - - - - - - -
08/02:00pm 26.4 N 8 10 1010.0 - 0.0 - - - - - - -
08/01:30pm 26.6 N 8 11 1010.3 - 0.0 - - - - - - -
08/01:00pm 26.3 N 8 11 1010.8 - 0.0 - - - - - - -
08/12:30pm 26.5 N 10 14 1011.1 - 0.0 - - - - - - -
08/12:00pm 26.4 N 10 13 1011.5 - 0.0 - - - - - - -
08/11:30am 27.3 N 11 14 1011.8 - 0.0 - - - - - - -
08/11:00am 26.8 N 9 13 1012.3 - 0.0 - - - - - - -
08/10:30am 27.1 N 8 12 1012.3 - 0.0 - - - - - - -
08/10:00am 26.4 NNE 10 14 1012.4 - 0.0 - - - - - - -
08/09:30am 27.5 NNE 9 15 1012.5 - 0.0 - - - - - - -
08/09:00am 26.8 NNE 8 12 1012.7 - 0.0 - - - - - - -
08/08:30am 26.8 NE 8 12 1012.9 - 0.0 - - - - - - -
08/08:00am 26.1 NE 7 11 1013.0 - 0.0 - - - - - - -
08/07:30am 26.0 ENE 9 13 1012.8 - 0.0 - - - - - - -
08/07:00am 24.7 NE 7 11 1012.7 - 0.0 - - - - - - -
08/06:30am 24.2 NE 6 8 1012.7 - 0.0 - - - - - - -
08/06:00am 23.9 NE 5 9 1012.4 - 0.0 - - - - - - -
08/05:30am 23.6 NE 5 7 1012.2 - 0.0 - - - - - - -
08/05:00am 23.3 NE 5 7 1012.0 - 0.0 - - - - - - -
08/04:30am 23.5 NE 4 5 1011.9 - 0.0 - - - - - - -
08/04:00am 23.6 NE 4 6 1011.8 - 0.0 - - - - - - -
08/03:30am 23.5 NE 4 5 1011.6 - 0.0 - - - - - - -
08/03:00am 23.6 NNE 5 8 1011.4 - 0.0 - - - - - - -
08/02:30am 23.6 NNE 5 8 1011.1 - 0.0 - - - - - - -
08/02:00am 23.7 NNE 5 7 1011.4 - 0.0 - - - - - - -
08/01:30am 23.7 NNE 9 12 1011.1 - 0.0 - - - - - - -
08/01:00am 23.7 N 7 9 1011.8 - 0.0 - - - - - - -
08/12:30am 23.9 N 9 12 1012.0 - 0.0 - - - - - - -
08/12:00am 23.8 N 9 13 1012.3 - 0.0 - - - - - - -
 
Date/Time
EST
Temp
°C
Wind Pressure Rain since
9am
mm
Weather Cloud Vis
km
Sea
Height
m
Swell
Dir  Spd
kts
Gust
kts
hPa Trend Height
m
Period
s
Dir
07/11:30pm 23.9 N 9 12 1012.7 - 0.0 - - - - - - -
07/11:00pm 23.9 NNE 9 12 1012.8 - 0.0 - - - - - - -
07/10:30pm 24.0 NNE 11 15 1012.8 - 0.0 - - - - - - -
07/10:00pm 23.8 NNE 10 14 1012.9 - 0.0 - - - - - - -
07/09:30pm 23.8 NNE 8 11 1012.9 - 0.0 - - - - - - -
07/09:00pm 23.9 NNE 7 10 1012.8 - 0.0 - - - - - - -
07/08:30pm 23.9 NNE 9 14 1012.6 - 0.0 - - - - - - -
07/08:00pm 24.1 NNE 8 12 1012.7 - 0.0 - - - - - - -
07/07:30pm 24.1 NNE 7 11 1012.4 - 0.0 - - - - - - -
07/07:00pm 24.2 NNE 8 11 1012.4 - 0.0 - - - - - - -
07/06:30pm 24.4 NNE 8 11 1012.2 - 0.0 - - - - - - -
07/06:00pm 25.0 NNE 8 13 1012.0 - 0.0 - - - - - - -
07/05:30pm 25.3 NNE 10 14 1011.6 - 0.0 - - - - - - -
07/05:00pm 25.8 NE 11 15 1011.6 - 0.0 - - - - - - -
07/04:30pm 26.3 NNE 8 13 1011.6 - 0.0 - - - - - - -
07/04:00pm 26.9 NE 8 12 1011.9 - 0.0 - - - - - - -
07/03:30pm 27.0 NE 7 10 1012.1 - 0.0 - - - - - - -
07/03:00pm 27.2 NE 7 11 1012.4 - 0.0 - - - - - - -
07/02:30pm 27.4 ENE 6 11 1012.6 - 0.0 - - - - - - -
07/02:00pm 26.5 ENE 6 8 1012.7 - 0.0 - - - - - - -
07/01:30pm 28.5 ESE 6 9 1013.1 - 0.0 - - - - - - -
07/01:00pm 28.1 ESE 6 10 1013.2 - 0.0 - - - - - - -
07/12:30pm 27.1 ESE 7 12 1013.3 - 0.0 - - - - - - -
07/12:00pm 27.9 SE 8 14 1013.7 - 0.0 - - - - - - -
07/11:30am 27.9 ESE 8 13 1014.1 - 0.0 - - - - - - -
07/11:00am 27.6 ESE 8 15 1014.4 - 0.0 - - - - - - -
07/10:30am 28.2 ESE 9 14 1014.5 - 0.0 - - - - - - -
07/10:00am 27.0 ESE 6 11 1014.5 - 0.0 - - - - - - -
07/09:30am 27.8 ESE 7 12 1014.6 - 0.0 - - - - - - -
07/09:00am 27.2 SE 6 9 1014.7 - 0.0 - - - - - - -
07/08:30am 26.0 SSE 7 10 1014.6 - 0.0 - - - - - - -
07/08:00am 26.0 E 4 7 1014.6 - 0.0 - - - - - - -
07/07:30am 25.2 NE 5 8 1014.1 - 0.0 - - - - - - -
07/07:00am 25.2 NE 6 10 1013.4 - 0.0 - - - - - - -
07/06:30am 24.4 NNE 5 7 1013.1 - 0.0 - - - - - - -
07/06:00am 24.0 NNE 5 7 1012.8 - 0.0 - - - - - - -
07/05:30am 23.4 NNE 7 10 1012.4 - 0.0 - - - - - - -
07/05:00am 23.4 N 7 11 1011.9 - 0.0 - - - - - - -
07/04:30am 23.3 NNE 8 13 1011.5 - 0.0 - - - - - - -
07/04:00am 23.3 NNE 8 12 1011.1 - 0.0 - - - - - - -
07/03:30am 23.3 NNE 8 12 1011.0 - 0.0 - - - - - - -
07/03:00am 23.1 NNE 8 11 1011.0 - 0.0 - - - - - - -
07/02:30am 23.3 NNE 8 12 1011.2 - 0.0 - - - - - - -
07/02:00am 23.2 NE 8 12 1011.5 - 0.0 - - - - - - -
07/01:30am 23.3 NNE 8 11 1011.9 - 0.0 - - - - - - -
07/01:00am 23.3 NNE 9 13 1012.2 - 0.0 - - - - - - -
07/12:30am 23.4 NNE 7 11 1012.5 - 0.0 - - - - - - -
07/12:00am 23.3 NE 7 11 1012.8 - 0.0 - - - - - - -
 
Date/Time
EST
Temp
°C
Wind Pressure Rain since
9am
mm
Weather Cloud Vis
km
Sea
Height
m
Swell
Dir  Spd
kts
Gust
kts
hPa Trend Height
m
Period
s
Dir
06/11:30pm 23.4 NE 9 14 1012.7 - 0.0 - - - - - - -
06/11:00pm 23.5 NE 8 13 1012.9 - 0.0 - - - - - - -
06/10:30pm 23.6 NE 10 14 1013.2 - 0.0 - - - - - - -
06/10:00pm 23.6 NE 8 12 1013.2 - 0.0 - - - - - - -
06/09:30pm 23.5 ENE 7 11 1013.3 - 0.0 - - - - - - -
06/09:00pm 23.6 NE 8 13 1013.1 - 0.0 - - - - - - -
06/08:30pm 23.6 ENE 7 12 1013.1 - 0.0 - - - - - - -
06/08:00pm 23.7 ENE 8 13 1013.3 - 0.0 - - - - - - -
06/07:30pm 23.8 NE 9 16 1013.1 - 0.0 - - - - - - -
06/07:00pm 23.9 ENE 8 12 1013.2 - 0.0 - - - - - - -
06/06:30pm 24.1 ENE 8 12 1013.2 - 0.0 - - - - - - -
06/06:00pm 24.7 ENE 7 12 1013.0 - 0.0 - - - - - - -
06/05:30pm 24.8 ENE 8 13 1013.0 - 0.0 - - - - - - -
06/05:00pm 25.1 ENE 9 13 1013.1 - 0.0 - - - - - - -
06/04:30pm 25.4 ENE 8 12 1013.1 - 0.0 - - - - - - -
06/04:00pm 26.4 ENE 7 13 1013.2 - 0.0 - - - - - - -
06/03:30pm 26.1 E 7 14 1013.4 - 0.0 - - - - - - -
06/03:00pm 26.8 E 8 13 1013.7 - 0.0 - - - - - - -
06/02:30pm 27.1 ESE 9 15 1013.9 - 0.0 - - - - - - -
06/02:00pm 27.2 SE 11 15 1014.2 - 0.0 - - - - - - -
06/01:30pm 27.1 SE 11 16 1014.6 - 0.0 - - - - - - -
06/01:00pm 27.0 SE 11 15 1014.9 - 0.0 - - - - - - -
06/12:30pm 26.8 SE 10 15 1015.1 - 0.0 - - - - - - -
06/12:00pm 28.0 E 7 15 1015.4 - 0.0 - - - - - - -
06/11:30am 26.9 NE 9 11 1015.7 - 0.0 - - - - - - -
06/11:00am 27.7 ENE 7 10 1015.9 - 0.0 - - - - - - -
06/10:30am 26.8 NE 8 15 1015.9 - 0.0 - - - - - - -
06/10:00am 26.9 ENE 6 12 1016.3 - 0.0 - - - - - - -

Other Formats:

Comma delimited format used in spreadsheet applications
http://www.bom.gov.au/fwo/IDQ60701/IDQ60701.94372.axf

JavaScript Object Notation format (JSON) in row-major order
http://www.bom.gov.au/fwo/IDQ60701/IDQ60701.94372.json